LPPR/OPO METAR and TAF weather

Enter ICAO airport designator
Station Type Date Time Source
LPPR METAR 2022/11/26 09:00 UTC NOAA

LPPR 260900Z 11011KT CAVOK 11/06 Q1027


Station Type Date Time Source
LPPR Decoded METAR 2022/11/26 09:00 UTC NOAA

Porto / Pedras Rubras, Portugal (LPPR) 41-14N 008-41W 77M
Nov 26, 2022 - 04:00 AM EST / 2022.11.26 0900 UTC
Wind: from the ESE (110 degrees) at 13 MPH (11 KT):0
Visibility: greater than 7 mile(s):0
Temperature: 51 F (11 C)
Dew Point: 42 F (6 C)
Relative Humidity: 71%
Pressure (altimeter): 30.33 in. Hg (1027 hPa)
ob: LPPR 260900Z 11011KT CAVOK 11/06 Q1027
cycle: 9

Station Type Date Time Source
LPPR TAF 2022/11/26 06:18 UTC NOAA

TAF LPPR 260500Z 2606/2706 11010KT CAVOK
BECMG 2612/2614 21005KT
BECMG 2616/2618 VRB02KT
BECMG 2621/2624 12007KT

Example: see airport list